createdAt,value
2018-09-02T00:00:01.003Z,15.60
2018-09-02T00:02:30.429Z,15.60
2018-09-02T00:04:59.849Z,15.60
2018-09-02T00:07:29.280Z,15.60
2018-09-02T00:09:59.638Z,15.60
2018-09-02T00:12:29.051Z,15.60
2018-09-02T00:14:58.498Z,15.60
2018-09-02T00:17:27.914Z,15.60
2018-09-02T00:19:57.326Z,15.60
2018-09-02T00:22:26.768Z,15.60
2018-09-02T00:24:56.230Z,15.60
2018-09-02T00:27:25.680Z,15.60
2018-09-02T00:29:55.129Z,15.60
2018-09-02T00:32:24.570Z,15.60
2018-09-02T00:34:54.031Z,15.60
2018-09-02T00:37:23.462Z,15.60
2018-09-02T00:39:52.882Z,15.50
2018-09-02T00:42:22.283Z,15.50
2018-09-02T00:44:51.755Z,15.50
2018-09-02T00:47:21.197Z,15.50
2018-09-02T00:49:50.620Z,15.50
2018-09-02T00:52:20.023Z,15.50
2018-09-02T00:54:49.497Z,15.50
2018-09-02T00:57:18.928Z,15.50
2018-09-02T00:59:48.417Z,15.50
2018-09-02T01:02:17.877Z,15.50
2018-09-02T01:04:47.588Z,15.50
2018-09-02T01:07:17.038Z,15.50
2018-09-02T01:09:46.565Z,15.40
2018-09-02T01:12:16.342Z,15.40
2018-09-02T01:14:46.125Z,15.40
2018-09-02T01:17:15.889Z,15.40
2018-09-02T01:19:45.656Z,15.40
2018-09-02T01:22:15.433Z,15.30
2018-09-02T01:24:45.285Z,15.30
2018-09-02T01:27:15.010Z,15.30
2018-09-02T01:29:44.783Z,15.30
2018-09-02T01:32:15.123Z,15.30
2018-09-02T01:34:44.864Z,15.20
2018-09-02T01:37:14.632Z,15.20
2018-09-02T01:39:44.375Z,15.20
2018-09-02T01:42:14.204Z,15.20
2018-09-02T01:44:43.985Z,15.20
2018-09-02T01:47:13.779Z,15.10
2018-09-02T01:49:43.533Z,15.10
2018-09-02T01:52:13.302Z,15.10
2018-09-02T01:54:43.033Z,15.10
2018-09-02T01:57:12.798Z,15.10
2018-09-02T01:59:42.576Z,15.10
2018-09-02T02:02:12.325Z,15.10
2018-09-02T02:04:42.968Z,15.10
2018-09-02T02:07:13.556Z,15.10
2018-09-02T02:09:43.384Z,15.00
2018-09-02T02:12:13.201Z,15.00
2018-09-02T02:14:43.018Z,15.00
2018-09-02T02:17:12.752Z,15.00
2018-09-02T02:19:42.523Z,15.00
2018-09-02T02:22:12.311Z,15.00
2018-09-02T02:24:42.078Z,15.00
2018-09-02T02:27:11.845Z,14.90
2018-09-02T02:29:41.673Z,14.90
2018-09-02T02:32:11.473Z,14.90
2018-09-02T02:34:41.290Z,14.90
2018-09-02T02:37:11.098Z,14.90
2018-09-02T02:39:40.848Z,14.90
2018-09-02T02:42:10.620Z,14.90
2018-09-02T02:44:40.403Z,14.90
2018-09-02T02:47:10.243Z,14.90
2018-09-02T02:49:40.018Z,14.80
2018-09-02T02:52:09.746Z,14.90
2018-09-02T02:54:39.548Z,14.80
2018-09-02T02:57:09.358Z,14.80
2018-09-02T02:59:39.105Z,14.80
2018-09-02T03:02:08.897Z,14.80
2018-09-02T03:04:41.110Z,14.80
2018-09-02T03:07:11.733Z,14.80
2018-09-02T03:09:41.221Z,14.80
2018-09-02T03:12:10.673Z,14.80
2018-09-02T03:14:40.054Z,14.80
2018-09-02T03:17:09.435Z,14.80
2018-09-02T03:19:38.827Z,14.80
2018-09-02T03:22:08.241Z,14.70
2018-09-02T03:24:37.771Z,14.80
2018-09-02T03:27:07.300Z,14.70
2018-09-02T03:29:36.733Z,14.80
2018-09-02T03:32:06.189Z,14.70
2018-09-02T03:34:35.595Z,14.70
2018-09-02T03:37:05.386Z,14.70
2018-09-02T03:39:34.796Z,14.70
2018-09-02T03:42:04.259Z,14.70
2018-09-02T03:44:33.687Z,14.70
2018-09-02T03:47:03.215Z,14.70
2018-09-02T03:49:32.666Z,14.70
2018-09-02T03:52:02.102Z,14.70
2018-09-02T03:54:31.498Z,14.70
2018-09-02T03:57:00.924Z,14.70
2018-09-02T03:59:31.587Z,14.60
2018-09-02T04:02:01.523Z,14.60
2018-09-02T04:04:31.140Z,14.60
2018-09-02T04:07:00.566Z,14.60
2018-09-02T04:09:29.990Z,14.50
2018-09-02T04:11:59.421Z,14.50
2018-09-02T04:14:28.854Z,14.40
2018-09-02T04:16:58.353Z,14.40
2018-09-02T04:19:27.773Z,14.30
2018-09-02T04:21:57.170Z,14.30
2018-09-02T04:24:26.574Z,14.20
2018-09-02T04:26:55.982Z,14.20
2018-09-02T04:29:25.392Z,14.10
2018-09-02T04:31:54.809Z,14.00
2018-09-02T04:34:24.276Z,13.90
2018-09-02T04:36:53.704Z,13.90
2018-09-02T04:39:23.106Z,13.80
2018-09-02T04:41:52.534Z,13.80
2018-09-02T04:44:21.921Z,13.70
2018-09-02T04:46:51.318Z,13.60
2018-09-02T04:49:20.707Z,13.60
2018-09-02T04:51:50.085Z,13.50
2018-09-02T04:54:19.529Z,13.50
2018-09-02T04:56:48.930Z,13.40
2018-09-02T04:59:18.301Z,13.30
2018-09-02T05:01:47.710Z,13.30
2018-09-02T05:04:17.088Z,13.20
2018-09-02T05:06:46.514Z,13.20
2018-09-02T05:09:15.946Z,13.20
2018-09-02T05:11:45.354Z,13.10
2018-09-02T05:14:14.808Z,13.10
2018-09-02T05:16:44.165Z,13.00
2018-09-02T05:19:13.567Z,13.00
2018-09-02T05:21:42.939Z,13.00
2018-09-02T05:24:12.364Z,12.90
2018-09-02T05:26:41.779Z,12.90
2018-09-02T05:29:11.159Z,12.90
2018-09-02T05:31:40.599Z,12.80
2018-09-02T05:34:09.970Z,12.80
2018-09-02T05:36:39.393Z,12.80
2018-09-02T05:39:10.556Z,12.80
2018-09-02T05:41:39.970Z,12.80
2018-09-02T05:44:09.501Z,12.80
2018-09-02T05:46:38.841Z,12.80
2018-09-02T05:49:08.373Z,12.80
2018-09-02T05:51:37.805Z,12.80
2018-09-02T05:54:07.203Z,12.80
2018-09-02T05:56:36.620Z,12.80
2018-09-02T05:59:06.266Z,12.80
2018-09-02T06:01:35.685Z,12.90
2018-09-02T06:04:05.116Z,12.90
2018-09-02T06:06:34.527Z,12.90
2018-09-02T06:09:05.039Z,12.90
2018-09-02T06:11:34.460Z,13.00
2018-09-02T06:14:04.209Z,13.00
2018-09-02T06:16:33.648Z,13.10
2018-09-02T06:19:03.038Z,13.10
2018-09-02T06:21:32.455Z,13.20
2018-09-02T06:24:01.950Z,13.20
2018-09-02T06:26:31.387Z,13.30
2018-09-02T06:29:00.795Z,13.30
2018-09-02T06:31:30.219Z,13.40
2018-09-02T06:33:59.607Z,13.50
2018-09-02T06:36:29.038Z,13.60
2018-09-02T06:38:58.423Z,13.60
2018-09-02T06:41:27.886Z,13.70
2018-09-02T06:43:57.301Z,13.80
2018-09-02T06:46:26.732Z,13.90
2018-09-02T06:48:56.205Z,14.00
2018-09-02T06:51:25.621Z,14.10
2018-09-02T06:53:55.051Z,14.20
2018-09-02T06:56:24.454Z,14.30
2018-09-02T06:58:53.846Z,14.40
2018-09-02T07:01:23.618Z,14.50
2018-09-02T07:03:53.455Z,14.70
2018-09-02T07:06:22.886Z,14.80
2018-09-02T07:08:52.312Z,14.90
2018-09-02T07:11:21.758Z,15.10
2018-09-02T07:13:51.166Z,15.20
2018-09-02T07:16:20.621Z,15.30
2018-09-02T07:18:50.029Z,15.40
2018-09-02T07:21:19.452Z,15.50
2018-09-02T07:23:48.869Z,15.70
2018-09-02T07:26:18.268Z,15.80
2018-09-02T07:28:47.681Z,16.00
2018-09-02T07:31:17.216Z,16.10
2018-09-02T07:33:46.604Z,16.20
2018-09-02T07:36:16.033Z,16.40
2018-09-02T07:38:45.519Z,16.50
2018-09-02T07:41:14.938Z,16.60
2018-09-02T07:43:44.503Z,16.80
2018-09-02T07:46:13.861Z,16.90
2018-09-02T07:48:43.458Z,17.10
2018-09-02T07:51:12.922Z,17.20
2018-09-02T07:53:42.358Z,17.40
2018-09-02T07:56:11.771Z,17.50
2018-09-02T07:58:41.252Z,17.70
2018-09-02T08:01:10.941Z,17.80
2018-09-02T08:03:40.407Z,18.00
2018-09-02T08:06:10.202Z,18.10
2018-09-02T08:08:39.707Z,18.30
2018-09-02T08:11:09.247Z,18.50
2018-09-02T08:13:38.869Z,18.60
2018-09-02T08:16:08.706Z,18.90
2018-09-02T08:18:38.517Z,19.00
2018-09-02T08:21:08.312Z,19.20
2018-09-02T08:23:38.072Z,19.40
2018-09-02T08:26:08.026Z,19.60
2018-09-02T08:28:37.860Z,19.80
2018-09-02T08:31:07.528Z,20.00
2018-09-02T08:33:37.034Z,20.10
2018-09-02T08:36:06.726Z,20.30
2018-09-02T08:38:36.543Z,20.50
2018-09-02T08:41:06.327Z,20.70
2018-09-02T08:43:36.109Z,20.80
2018-09-02T08:46:05.954Z,21.00
2018-09-02T08:48:35.658Z,21.10
2018-09-02T08:51:05.678Z,21.30
2018-09-02T08:53:35.441Z,21.40
2018-09-02T08:56:05.257Z,21.50
2018-09-02T08:58:34.669Z,21.60
2018-09-02T09:01:04.228Z,21.80
2018-09-02T09:03:33.797Z,21.90
2018-09-02T09:06:03.332Z,22.00
2018-09-02T09:08:33.067Z,22.10
2018-09-02T09:11:02.452Z,22.20
2018-09-02T09:13:31.956Z,22.40
2018-09-02T09:16:01.677Z,22.50
2018-09-02T09:18:31.339Z,22.60
2018-09-02T09:21:00.827Z,22.70
2018-09-02T09:23:30.320Z,22.80
2018-09-02T09:26:00.138Z,22.90
2018-09-02T09:28:29.610Z,23.00
2018-09-02T09:30:59.100Z,23.00
2018-09-02T09:33:28.615Z,23.10
2018-09-02T09:35:58.179Z,23.20
2018-09-02T09:38:27.618Z,23.30
2018-09-02T09:40:57.138Z,23.30
2018-09-02T09:43:26.935Z,23.40
2018-09-02T09:45:56.705Z,23.40
2018-09-02T09:48:26.508Z,23.50
2018-09-02T09:50:56.243Z,23.50
2018-09-02T09:53:26.043Z,23.60
2018-09-02T09:55:55.888Z,23.60
2018-09-02T09:58:25.692Z,23.70
2018-09-02T10:00:55.468Z,23.80
2018-09-02T10:03:25.017Z,23.90
2018-09-02T10:05:54.802Z,24.00
2018-09-02T10:08:24.636Z,24.10
2018-09-02T10:10:54.275Z,24.20
2018-09-02T10:13:24.088Z,24.30
2018-09-02T10:15:53.875Z,24.30
2018-09-02T10:18:23.685Z,24.40
2018-09-02T10:20:53.519Z,24.50
2018-09-02T10:23:23.335Z,24.50
2018-09-02T10:25:53.171Z,24.50
2018-09-02T10:28:22.967Z,24.50
2018-09-02T10:30:52.908Z,24.60
2018-09-02T10:33:22.722Z,24.60
2018-09-02T10:35:52.505Z,24.60
2018-09-02T10:38:22.367Z,24.70
2018-09-02T10:40:52.155Z,24.70
2018-09-02T10:43:21.965Z,24.70
2018-09-02T10:45:51.785Z,24.70
2018-09-02T10:48:21.565Z,24.70
2018-09-02T10:50:51.403Z,24.70
2018-09-02T10:53:21.185Z,24.80
2018-09-02T10:55:51.039Z,24.90
2018-09-02T10:58:20.826Z,25.00
2018-09-02T11:00:50.639Z,25.10
2018-09-02T11:03:20.484Z,25.20
2018-09-02T11:05:50.348Z,25.30
2018-09-02T11:08:20.385Z,25.40
2018-09-02T11:10:50.121Z,25.50
2018-09-02T11:13:19.634Z,25.60
2018-09-02T11:15:49.150Z,25.60
2018-09-02T11:18:18.699Z,25.70
2018-09-02T11:20:48.357Z,25.70
2018-09-02T11:23:18.196Z,25.80
2018-09-02T11:25:48.021Z,25.80
2018-09-02T11:28:17.835Z,25.90
2018-09-02T11:30:47.618Z,25.90
2018-09-02T11:33:17.290Z,25.90
2018-09-02T11:35:46.810Z,25.90
2018-09-02T11:38:16.277Z,25.90
2018-09-02T11:40:45.975Z,26.00
2018-09-02T11:43:15.482Z,26.00
2018-09-02T11:45:44.975Z,26.10
2018-09-02T11:48:14.466Z,26.20
2018-09-02T11:50:43.951Z,26.20
2018-09-02T11:53:13.569Z,26.30
2018-09-02T11:55:43.375Z,26.30
2018-09-02T11:58:13.172Z,26.40
2018-09-02T12:00:43.004Z,26.40
2018-09-02T12:03:12.817Z,26.50
2018-09-02T12:05:42.429Z,26.50
2018-09-02T12:08:11.881Z,26.60
2018-09-02T12:10:41.329Z,26.80
2018-09-02T12:13:10.825Z,26.90
2018-09-02T12:15:40.290Z,27.00
2018-09-02T12:18:09.901Z,27.10
2018-09-02T12:20:39.333Z,27.20
2018-09-02T12:23:08.765Z,27.30
2018-09-02T12:25:38.179Z,27.40
2018-09-02T12:28:07.634Z,27.40
2018-09-02T12:30:37.065Z,27.40
2018-09-02T12:33:06.667Z,27.50
2018-09-02T12:35:36.178Z,27.50
2018-09-02T12:38:05.604Z,27.50
2018-09-02T12:40:35.007Z,27.50
2018-09-02T12:43:04.433Z,27.50
2018-09-02T12:45:33.917Z,27.50
2018-09-02T12:48:03.429Z,27.40
2018-09-02T12:50:32.858Z,27.40
2018-09-02T12:53:02.234Z,27.30
2018-09-02T12:55:31.701Z,27.20
2018-09-02T12:58:01.125Z,27.20
2018-09-02T13:00:33.542Z,27.10
2018-09-02T13:03:09.572Z,27.10
2018-09-02T13:05:39.009Z,27.10
2018-09-02T13:08:08.447Z,27.00
2018-09-02T13:10:38.029Z,27.00
2018-09-02T13:13:07.690Z,26.90
2018-09-02T13:15:37.144Z,26.90
2018-09-02T13:18:06.750Z,27.00
2018-09-02T13:20:36.185Z,27.10
2018-09-02T13:23:05.731Z,27.20
2018-09-02T13:25:35.151Z,27.20
2018-09-02T13:28:04.607Z,27.30
2018-09-02T13:30:34.017Z,27.40
2018-09-02T13:33:03.415Z,27.60
2018-09-02T13:35:39.002Z,27.70
2018-09-02T13:38:08.418Z,27.80
2018-09-02T13:40:37.857Z,27.90
2018-09-02T13:43:07.318Z,27.90
2018-09-02T13:45:36.729Z,27.90
2018-09-02T13:48:06.219Z,27.80
2018-09-02T13:50:35.631Z,27.80
2018-09-02T13:53:05.057Z,27.70
2018-09-02T13:55:34.480Z,27.60
2018-09-02T13:58:03.930Z,27.60
2018-09-02T14:00:33.351Z,27.60
2018-09-02T14:03:02.773Z,27.70
2018-09-02T14:05:32.182Z,27.70
2018-09-02T14:08:01.654Z,27.80
2018-09-02T14:10:31.035Z,27.90
2018-09-02T14:13:00.485Z,28.00
2018-09-02T14:15:29.878Z,28.00
2018-09-02T14:17:59.398Z,28.00
2018-09-02T14:20:28.894Z,28.00
2018-09-02T14:22:58.389Z,27.90
2018-09-02T14:25:27.855Z,27.80
2018-09-02T14:27:57.300Z,27.80
2018-09-02T14:30:26.730Z,27.70
2018-09-02T14:32:56.199Z,27.60
2018-09-02T14:35:25.617Z,27.60
2018-09-02T14:37:55.047Z,27.50
2018-09-02T14:40:24.490Z,27.50
2018-09-02T14:42:53.931Z,27.50
2018-09-02T14:45:23.411Z,27.50
2018-09-02T14:47:52.830Z,27.60
2018-09-02T14:50:22.223Z,27.60
2018-09-02T14:52:51.669Z,27.60
2018-09-02T14:55:21.169Z,27.60
2018-09-02T14:57:50.657Z,27.60
2018-09-02T15:00:20.115Z,27.60
2018-09-02T15:02:49.550Z,27.60
2018-09-02T15:05:18.984Z,27.50
2018-09-02T15:07:48.435Z,27.50
2018-09-02T15:10:17.849Z,27.50
2018-09-02T15:12:47.274Z,27.50
2018-09-02T15:15:16.688Z,27.50
2018-09-02T15:17:46.125Z,27.50
2018-09-02T15:20:15.558Z,27.50
2018-09-02T15:22:44.961Z,27.50
2018-09-02T15:25:14.420Z,27.40
2018-09-02T15:27:43.850Z,27.30
2018-09-02T15:30:13.333Z,27.20
2018-09-02T15:32:42.811Z,27.20
2018-09-02T15:35:12.296Z,27.10
2018-09-02T15:37:41.745Z,27.10
2018-09-02T15:40:11.301Z,27.20
2018-09-02T15:42:40.783Z,27.20
2018-09-02T15:45:11.191Z,27.30
2018-09-02T15:47:40.659Z,27.40
2018-09-02T15:50:10.078Z,27.50
2018-09-02T15:52:39.533Z,27.50
2018-09-02T15:55:08.998Z,27.60
2018-09-02T15:57:38.467Z,27.60
2018-09-02T16:00:08.999Z,27.70
2018-09-02T16:02:38.660Z,27.60
2018-09-02T16:05:08.115Z,27.60
2018-09-02T16:07:37.571Z,27.50
2018-09-02T16:10:07.326Z,27.50
2018-09-02T16:12:36.752Z,27.40
2018-09-02T16:15:06.629Z,27.40
2018-09-02T16:17:36.068Z,27.30
2018-09-02T16:20:06.060Z,27.20
2018-09-02T16:22:35.463Z,27.10
2018-09-02T16:25:05.042Z,27.00
2018-09-02T16:27:34.561Z,27.00
2018-09-02T16:30:04.095Z,26.90
2018-09-02T16:32:34.306Z,26.80
2018-09-02T16:35:04.065Z,26.70
2018-09-02T16:37:33.618Z,26.60
2018-09-02T16:40:03.081Z,26.50
2018-09-02T16:42:32.622Z,26.40
2018-09-02T16:45:02.138Z,26.30
2018-09-02T16:47:31.619Z,26.20
2018-09-02T16:50:01.071Z,26.10
2018-09-02T16:52:30.566Z,26.00
2018-09-02T16:54:59.990Z,25.90
2018-09-02T16:57:29.475Z,25.80
2018-09-02T16:59:58.949Z,25.60
2018-09-02T17:02:28.393Z,25.50
2018-09-02T17:05:01.750Z,25.50
2018-09-02T17:07:31.478Z,25.30
2018-09-02T17:10:00.957Z,25.30
2018-09-02T17:12:30.431Z,25.10
2018-09-02T17:14:59.853Z,25.00
2018-09-02T17:17:29.304Z,25.00
2018-09-02T17:19:59.758Z,24.90
2018-09-02T17:22:29.227Z,24.80
2018-09-02T17:24:58.695Z,24.70
2018-09-02T17:27:28.135Z,24.60
2018-09-02T17:29:57.599Z,24.50
2018-09-02T17:32:27.757Z,24.40
2018-09-02T17:34:57.164Z,24.30
2018-09-02T17:37:26.671Z,24.20
2018-09-02T17:39:56.072Z,24.10
2018-09-02T17:42:25.488Z,24.10
2018-09-02T17:44:54.901Z,24.00
2018-09-02T17:47:24.326Z,24.00
2018-09-02T17:49:53.734Z,23.90
2018-09-02T17:52:23.158Z,23.90
2018-09-02T17:54:52.927Z,23.80
2018-09-02T17:57:22.446Z,23.80
2018-09-02T17:59:51.874Z,23.70
2018-09-02T18:02:21.403Z,23.60
2018-09-02T18:04:50.865Z,23.60
2018-09-02T18:07:20.332Z,23.50
2018-09-02T18:09:49.737Z,23.50
2018-09-02T18:12:19.207Z,23.40
2018-09-02T18:14:48.648Z,23.40
2018-09-02T18:17:18.118Z,23.30
2018-09-02T18:19:47.552Z,23.30
2018-09-02T18:22:17.022Z,23.20
2018-09-02T18:24:46.495Z,23.20
2018-09-02T18:27:17.668Z,23.10
2018-09-02T18:29:52.247Z,23.00
2018-09-02T18:32:21.692Z,23.00
2018-09-02T18:34:51.384Z,22.90
2018-09-02T18:37:20.895Z,22.90
2018-09-02T18:39:50.455Z,22.80
2018-09-02T18:42:21.272Z,22.80
2018-09-02T18:44:50.833Z,22.80
2018-09-02T18:47:20.379Z,22.70
2018-09-02T18:49:50.072Z,22.70
2018-09-02T18:52:19.974Z,22.70
2018-09-02T18:54:49.721Z,22.60
2018-09-02T18:57:19.223Z,22.60
2018-09-02T18:59:49.004Z,22.50
2018-09-02T19:02:18.599Z,22.50
2018-09-02T19:04:48.068Z,22.50
2018-09-02T19:07:17.857Z,22.50
2018-09-02T19:09:47.391Z,22.40
2018-09-02T19:12:16.895Z,22.40
2018-09-02T19:14:46.360Z,22.40
2018-09-02T19:17:16.166Z,22.40
2018-09-02T19:19:45.940Z,22.30
2018-09-02T19:22:15.791Z,22.30
2018-09-02T19:24:45.526Z,22.30
2018-09-02T19:27:15.380Z,22.30
2018-09-02T19:29:44.947Z,22.20
2018-09-02T19:32:14.723Z,22.20
2018-09-02T19:34:44.228Z,22.20
2018-09-02T19:37:13.878Z,22.20
2018-09-02T19:39:43.513Z,22.10
2018-09-02T19:42:13.022Z,22.20
2018-09-02T19:44:42.616Z,22.10
2018-09-02T19:47:12.063Z,22.10
2018-09-02T19:49:41.832Z,22.10
2018-09-02T19:52:11.326Z,22.10
2018-09-02T19:54:41.438Z,22.10
2018-09-02T19:57:10.979Z,22.00
2018-09-02T19:59:40.462Z,22.00
2018-09-02T20:02:09.932Z,22.00
2018-09-02T20:04:39.390Z,22.00
2018-09-02T20:07:09.136Z,22.00
2018-09-02T20:09:38.583Z,22.00
2018-09-02T20:12:08.301Z,21.90
2018-09-02T20:14:37.778Z,21.90
2018-09-02T20:17:07.263Z,21.90
2018-09-02T20:19:36.680Z,21.90
2018-09-02T20:22:08.902Z,21.90
2018-09-02T20:24:38.403Z,21.90
2018-09-02T20:27:08.613Z,21.90
2018-09-02T20:29:38.356Z,21.90
2018-09-02T20:32:07.981Z,21.80
2018-09-02T20:34:37.424Z,21.80
2018-09-02T20:37:07.071Z,21.80
2018-09-02T20:39:36.523Z,21.80
2018-09-02T20:42:05.987Z,21.80
2018-09-02T20:44:35.426Z,21.80
2018-09-02T20:47:04.895Z,21.80
2018-09-02T20:49:34.315Z,21.80
2018-09-02T20:52:03.769Z,21.80
2018-09-02T20:54:33.202Z,21.80
2018-09-02T20:57:02.637Z,21.80
2018-09-02T20:59:32.101Z,21.80
2018-09-02T21:02:01.573Z,21.70
2018-09-02T21:04:31.030Z,21.70
2018-09-02T21:07:00.457Z,21.70
2018-09-02T21:09:29.938Z,21.70
2018-09-02T21:11:59.411Z,21.70
2018-09-02T21:14:28.929Z,21.70
2018-09-02T21:16:58.445Z,21.60
2018-09-02T21:19:27.842Z,21.60
2018-09-02T21:21:57.302Z,21.60
2018-09-02T21:24:26.814Z,21.50
2018-09-02T21:26:56.254Z,21.50
2018-09-02T21:29:25.696Z,21.50
2018-09-02T21:31:55.145Z,21.50
2018-09-02T21:34:24.590Z,21.50
2018-09-02T21:36:54.031Z,21.50
2018-09-02T21:39:23.420Z,21.40
2018-09-02T21:41:52.847Z,21.40
2018-09-02T21:44:22.203Z,21.40
2018-09-02T21:46:51.614Z,21.40
2018-09-02T21:49:20.982Z,21.40
2018-09-02T21:51:50.361Z,21.40
2018-09-02T21:54:19.811Z,21.30
2018-09-02T21:56:49.258Z,21.30
2018-09-02T21:59:19.695Z,21.30
2018-09-02T22:01:49.143Z,21.20
2018-09-02T22:04:18.623Z,21.20
2018-09-02T22:06:48.050Z,21.20
2018-09-02T22:09:18.058Z,21.10
2018-09-02T22:11:47.438Z,21.10
2018-09-02T22:14:16.841Z,21.10
2018-09-02T22:16:46.246Z,21.10
2018-09-02T22:19:15.655Z,21.00
2018-09-02T22:21:45.088Z,21.00
2018-09-02T22:24:14.489Z,21.00
2018-09-02T22:26:43.882Z,21.00
2018-09-02T22:29:13.318Z,21.00
2018-09-02T22:31:42.693Z,20.90
2018-09-02T22:34:12.082Z,20.90
2018-09-02T22:36:41.489Z,20.90
2018-09-02T22:39:10.957Z,20.90
2018-09-02T22:41:40.464Z,20.90
2018-09-02T22:44:09.878Z,20.90
2018-09-02T22:46:45.893Z,20.90
2018-09-02T22:49:15.294Z,20.90
2018-09-02T22:51:44.705Z,20.90
2018-09-02T22:54:14.077Z,20.90
2018-09-02T22:56:43.449Z,20.90
2018-09-02T22:59:12.839Z,20.90
2018-09-02T23:01:42.226Z,20.90
2018-09-02T23:04:11.614Z,20.90
2018-09-02T23:06:41.022Z,20.90
2018-09-02T23:09:10.425Z,20.90
2018-09-02T23:11:39.794Z,20.90
2018-09-02T23:14:09.223Z,20.90
2018-09-02T23:16:38.674Z,20.90
2018-09-02T23:19:08.084Z,20.80
2018-09-02T23:21:37.474Z,20.80
2018-09-02T23:24:06.926Z,20.80
2018-09-02T23:26:36.327Z,20.80
2018-09-02T23:29:05.950Z,20.80
2018-09-02T23:31:35.313Z,20.80
2018-09-02T23:34:04.738Z,20.80
2018-09-02T23:36:34.161Z,20.70
2018-09-02T23:39:04.141Z,20.70
2018-09-02T23:41:33.557Z,20.70
2018-09-02T23:44:02.969Z,20.70
2018-09-02T23:46:32.445Z,20.70
2018-09-02T23:49:02.067Z,20.70
2018-09-02T23:51:31.613Z,20.70
2018-09-02T23:54:00.998Z,20.60
2018-09-02T23:56:30.353Z,20.60
2018-09-02T23:58:59.737Z,20.60
